sensor_id;sensor_type;location;lat;lon;timestamp;temperature;humidity
36752;DHT22;22718;49.494;7.036;2023-04-24T00:00:14;10.00;99.90
36752;DHT22;22718;49.494;7.036;2023-04-24T00:02:42;10.00;99.90
36752;DHT22;22718;49.494;7.036;2023-04-24T00:05:11;10.00;99.90
36752;DHT22;22718;49.494;7.036;2023-04-24T00:07:37;10.00;99.90
36752;DHT22;22718;49.494;7.036;2023-04-24T00:10:03;10.00;99.90
36752;DHT22;22718;49.494;7.036;2023-04-24T00:12:28;9.90;99.90
36752;DHT22;22718;49.494;7.036;2023-04-24T00:15:01;9.90;99.90
36752;DHT22;22718;49.494;7.036;2023-04-24T00:17:32;9.90;99.90
36752;DHT22;22718;49.494;7.036;2023-04-24T00:20:05;9.90;99.90
36752;DHT22;22718;49.494;7.036;2023-04-24T00:22:32;9.90;99.90
36752;DHT22;22718;49.494;7.036;2023-04-24T00:24:58;9.90;99.90
36752;DHT22;22718;49.494;7.036;2023-04-24T00:27:32;9.90;99.90
36752;DHT22;22718;49.494;7.036;2023-04-24T00:30:06;9.90;99.90
36752;DHT22;22718;49.494;7.036;2023-04-24T00:32:32;9.80;99.90
36752;DHT22;22718;49.494;7.036;2023-04-24T00:35:00;9.70;99.90
36752;DHT22;22718;49.494;7.036;2023-04-24T00:37:28;9.70;99.90
36752;DHT22;22718;49.494;7.036;2023-04-24T00:39:57;9.70;99.90
36752;DHT22;22718;49.494;7.036;2023-04-24T00:42:23;9.60;99.90
36752;DHT22;22718;49.494;7.036;2023-04-24T00:44:49;9.60;99.90
36752;DHT22;22718;49.494;7.036;2023-04-24T00:49:47;9.50;99.90
36752;DHT22;22718;49.494;7.036;2023-04-24T00:52:17;9.50;99.90
36752;DHT22;22718;49.494;7.036;2023-04-24T00:54:53;9.40;99.90
36752;DHT22;22718;49.494;7.036;2023-04-24T00:57:19;9.40;99.90
36752;DHT22;22718;49.494;7.036;2023-04-24T00:59:47;9.30;99.90
36752;DHT22;22718;49.494;7.036;2023-04-24T01:02:13;9.50;99.90
36752;DHT22;22718;49.494;7.036;2023-04-24T01:04:40;9.30;99.90
36752;DHT22;22718;49.494;7.036;2023-04-24T01:07:06;9.30;99.90
36752;DHT22;22718;49.494;7.036;2023-04-24T01:09:44;9.60;99.90
36752;DHT22;22718;49.494;7.036;2023-04-24T01:12:14;9.30;99.90
36752;DHT22;22718;49.494;7.036;2023-04-24T01:14:42;9.30;99.90
36752;DHT22;22718;49.494;7.036;2023-04-24T01:17:08;9.30;99.90
36752;DHT22;22718;49.494;7.036;2023-04-24T01:19:39;9.30;99.90
36752;DHT22;22718;49.494;7.036;2023-04-24T01:22:12;11.80;99.90
36752;DHT22;22718;49.494;7.036;2023-04-24T01:24:42;9.20;99.90
36752;DHT22;22718;49.494;7.036;2023-04-24T01:27:15;9.20;99.90
36752;DHT22;22718;49.494;7.036;2023-04-24T01:29:43;9.20;99.90
36752;DHT22;22718;49.494;7.036;2023-04-24T01:32:14;9.20;99.90
36752;DHT22;22718;49.494;7.036;2023-04-24T01:34:40;9.20;99.90
36752;DHT22;22718;49.494;7.036;2023-04-24T01:37:06;9.20;99.90
36752;DHT22;22718;49.494;7.036;2023-04-24T01:39:35;9.20;99.90
36752;DHT22;22718;49.494;7.036;2023-04-24T01:42:01;9.20;99.90
36752;DHT22;22718;49.494;7.036;2023-04-24T01:44:29;9.20;99.90
36752;DHT22;22718;49.494;7.036;2023-04-24T01:46:58;9.10;99.90
36752;DHT22;22718;49.494;7.036;2023-04-24T01:49:29;9.10;99.90
36752;DHT22;22718;49.494;7.036;2023-04-24T01:51:58;9.10;99.90
36752;DHT22;22718;49.494;7.036;2023-04-24T01:57:18;9.70;99.90
36752;DHT22;22718;49.494;7.036;2023-04-24T01:59:46;9.00;99.90
36752;DHT22;22718;49.494;7.036;2023-04-24T02:02:12;6.00;99.90
36752;DHT22;22718;49.494;7.036;2023-04-24T02:04:42;9.00;99.90
36752;DHT22;22718;49.494;7.036;2023-04-24T02:07:08;12.50;99.90
36752;DHT22;22718;49.494;7.036;2023-04-24T02:09:37;8.90;99.90
36752;DHT22;22718;49.494;7.036;2023-04-24T02:14:34;8.90;99.90
36752;DHT22;22718;49.494;7.036;2023-04-24T02:17:03;8.90;99.90
36752;DHT22;22718;49.494;7.036;2023-04-24T02:19:30;8.80;99.90
36752;DHT22;22718;49.494;7.036;2023-04-24T02:21:56;8.70;99.90
36752;DHT22;22718;49.494;7.036;2023-04-24T02:24:21;8.60;99.90
36752;DHT22;22718;49.494;7.036;2023-04-24T02:26:47;8.50;99.90
36752;DHT22;22718;49.494;7.036;2023-04-24T02:29:17;8.50;99.90
36752;DHT22;22718;49.494;7.036;2023-04-24T02:31:43;8.40;99.90
36752;DHT22;22718;49.494;7.036;2023-04-24T02:34:09;8.40;99.90
36752;DHT22;22718;49.494;7.036;2023-04-24T02:39:10;8.30;99.90
36752;DHT22;22718;49.494;7.036;2023-04-24T02:41:36;8.20;99.90
36752;DHT22;22718;49.494;7.036;2023-04-24T02:44:05;8.20;99.90
36752;DHT22;22718;49.494;7.036;2023-04-24T02:46:36;8.00;99.90
36752;DHT22;22718;49.494;7.036;2023-04-24T02:49:09;7.90;99.90
36752;DHT22;22718;49.494;7.036;2023-04-24T02:51:37;7.80;99.90
36752;DHT22;22718;49.494;7.036;2023-04-24T02:54:13;7.80;99.90
36752;DHT22;22718;49.494;7.036;2023-04-24T02:56:42;7.70;99.90
36752;DHT22;22718;49.494;7.036;2023-04-24T02:59:20;7.60;99.90
36752;DHT22;22718;49.494;7.036;2023-04-24T03:01:46;7.50;99.90
36752;DHT22;22718;49.494;7.036;2023-04-24T03:04:15;7.80;99.90
36752;DHT22;22718;49.494;7.036;2023-04-24T03:06:44;9.40;99.90
36752;DHT22;22718;49.494;7.036;2023-04-24T03:09:14;7.40;99.90
36752;DHT22;22718;49.494;7.036;2023-04-24T03:11:52;7.50;99.90
36752;DHT22;22718;49.494;7.036;2023-04-24T03:14:23;7.50;99.90
36752;DHT22;22718;49.494;7.036;2023-04-24T03:16:59;7.60;99.90
36752;DHT22;22718;49.494;7.036;2023-04-24T03:19:35;7.60;99.90
36752;DHT22;22718;49.494;7.036;2023-04-24T03:24:49;7.70;99.90
36752;DHT22;22718;49.494;7.036;2023-04-24T03:27:17;7.70;99.90
36752;DHT22;22718;49.494;7.036;2023-04-24T03:29:49;7.70;99.90
36752;DHT22;22718;49.494;7.036;2023-04-24T03:32:26;7.80;99.90
36752;DHT22;22718;49.494;7.036;2023-04-24T03:34:52;7.70;99.90
36752;DHT22;22718;49.494;7.036;2023-04-24T03:37:24;7.80;99.90
36752;DHT22;22718;49.494;7.036;2023-04-24T03:39:52;7.70;99.90
36752;DHT22;22718;49.494;7.036;2023-04-24T03:42:20;7.80;99.90
36752;DHT22;22718;49.494;7.036;2023-04-24T03:44:53;7.80;99.90
36752;DHT22;22718;49.494;7.036;2023-04-24T03:47:22;7.80;99.90
36752;DHT22;22718;49.494;7.036;2023-04-24T03:49:51;7.80;99.90
36752;DHT22;22718;49.494;7.036;2023-04-24T03:52:19;7.90;99.90
36752;DHT22;22718;49.494;7.036;2023-04-24T03:54:47;7.80;99.90
36752;DHT22;22718;49.494;7.036;2023-04-24T03:57:13;7.80;99.90
36752;DHT22;22718;49.494;7.036;2023-04-24T03:59:39;7.80;99.90
36752;DHT22;22718;49.494;7.036;2023-04-24T04:02:04;7.70;99.90
36752;DHT22;22718;49.494;7.036;2023-04-24T04:04:32;7.80;99.90
36752;DHT22;22718;49.494;7.036;2023-04-24T04:06:59;7.70;99.90
36752;DHT22;22718;49.494;7.036;2023-04-24T04:09:26;7.70;99.90
36752;DHT22;22718;49.494;7.036;2023-04-24T04:11:52;7.70;99.90
36752;DHT22;22718;49.494;7.036;2023-04-24T04:14:18;7.70;99.90
36752;DHT22;22718;49.494;7.036;2023-04-24T04:16:44;7.70;99.90
36752;DHT22;22718;49.494;7.036;2023-04-24T04:19:10;7.70;99.90
36752;DHT22;22718;49.494;7.036;2023-04-24T04:21:36;7.70;99.90
36752;DHT22;22718;49.494;7.036;2023-04-24T04:24:07;7.70;99.90
36752;DHT22;22718;49.494;7.036;2023-04-24T04:26:33;7.70;99.90
36752;DHT22;22718;49.494;7.036;2023-04-24T04:29:06;7.60;99.90
36752;DHT22;22718;49.494;7.036;2023-04-24T04:31:35;7.70;99.90
36752;DHT22;22718;49.494;7.036;2023-04-24T04:34:00;7.70;99.90
36752;DHT22;22718;49.494;7.036;2023-04-24T04:36:29;7.70;99.90
36752;DHT22;22718;49.494;7.036;2023-04-24T04:38:58;7.70;99.90
36752;DHT22;22718;49.494;7.036;2023-04-24T04:41:25;7.80;99.90
36752;DHT22;22718;49.494;7.036;2023-04-24T04:43:57;7.70;99.90
36752;DHT22;22718;49.494;7.036;2023-04-24T04:46:23;7.70;99.90
36752;DHT22;22718;49.494;7.036;2023-04-24T04:48:52;7.60;99.90
36752;DHT22;22718;49.494;7.036;2023-04-24T04:51:21;7.60;99.90
36752;DHT22;22718;49.494;7.036;2023-04-24T04:56:16;7.60;99.90
36752;DHT22;22718;49.494;7.036;2023-04-24T04:58:45;7.70;99.90
36752;DHT22;22718;49.494;7.036;2023-04-24T05:01:14;7.80;99.90
36752;DHT22;22718;49.494;7.036;2023-04-24T05:03:40;7.90;99.90
36752;DHT22;22718;49.494;7.036;2023-04-24T05:06:06;8.00;99.90
36752;DHT22;22718;49.494;7.036;2023-04-24T05:08:31;8.00;99.90
36752;DHT22;22718;49.494;7.036;2023-04-24T05:10:57;8.00;99.90
36752;DHT22;22718;49.494;7.036;2023-04-24T05:13:23;8.10;99.90
36752;DHT22;22718;49.494;7.036;2023-04-24T05:15:55;8.10;99.90
36752;DHT22;22718;49.494;7.036;2023-04-24T05:18:24;8.20;99.90
36752;DHT22;22718;49.494;7.036;2023-04-24T05:20:50;6.70;99.90
36752;DHT22;22718;49.494;7.036;2023-04-24T05:23:16;8.20;99.90
36752;DHT22;22718;49.494;7.036;2023-04-24T05:25:41;8.20;99.90
36752;DHT22;22718;49.494;7.036;2023-04-24T05:28:08;8.20;99.90
36752;DHT22;22718;49.494;7.036;2023-04-24T05:30:33;8.30;99.90
36752;DHT22;22718;49.494;7.036;2023-04-24T05:32:59;8.20;99.90
36752;DHT22;22718;49.494;7.036;2023-04-24T05:35:27;8.60;99.90
36752;DHT22;22718;49.494;7.036;2023-04-24T05:37:55;8.90;99.90
36752;DHT22;22718;49.494;7.036;2023-04-24T05:48:07;8.40;99.90
36752;DHT22;22718;49.494;7.036;2023-04-24T05:53:38;8.50;99.90
36752;DHT22;22718;49.494;7.036;2023-04-24T05:56:04;8.40;99.90
36752;DHT22;22718;49.494;7.036;2023-04-24T05:58:30;8.30;99.90
36752;DHT22;22718;49.494;7.036;2023-04-24T06:01:11;8.30;99.90
36752;DHT22;22718;49.494;7.036;2023-04-24T06:03:37;8.30;99.90
36752;DHT22;22718;49.494;7.036;2023-04-24T06:06:03;8.30;99.90
36752;DHT22;22718;49.494;7.036;2023-04-24T06:17:13;9.00;99.90
36752;DHT22;22718;49.494;7.036;2023-04-24T06:19:53;11.70;99.90
36752;DHT22;22718;49.494;7.036;2023-04-24T06:22:50;9.30;99.90
36752;DHT22;22718;49.494;7.036;2023-04-24T06:25:16;9.70;99.90
36752;DHT22;22718;49.494;7.036;2023-04-24T06:27:44;9.50;99.90
36752;DHT22;22718;49.494;7.036;2023-04-24T06:30:14;9.50;99.90
36752;DHT22;22718;49.494;7.036;2023-04-24T06:35:35;9.40;99.90
36752;DHT22;22718;49.494;7.036;2023-04-24T06:38:07;9.30;99.90
36752;DHT22;22718;49.494;7.036;2023-04-24T06:40:35;9.20;99.90
36752;DHT22;22718;49.494;7.036;2023-04-24T06:43:09;8.40;99.90
36752;DHT22;22718;49.494;7.036;2023-04-24T06:45:37;9.00;99.90
36752;DHT22;22718;49.494;7.036;2023-04-24T06:48:07;8.90;99.90
36752;DHT22;22718;49.494;7.036;2023-04-24T06:50:46;8.90;99.90
36752;DHT22;22718;49.494;7.036;2023-04-24T06:56:02;9.00;99.90
36752;DHT22;22718;49.494;7.036;2023-04-24T06:58:27;9.20;99.90
36752;DHT22;22718;49.494;7.036;2023-04-24T07:00:59;8.90;99.90
36752;DHT22;22718;49.494;7.036;2023-04-24T07:04:07;8.90;99.90
36752;DHT22;22718;49.494;7.036;2023-04-24T07:39:17;8.80;99.90
36752;DHT22;22718;49.494;7.036;2023-04-24T07:41:49;9.00;99.90
36752;DHT22;22718;49.494;7.036;2023-04-24T07:44:54;9.50;99.90
36752;DHT22;22718;49.494;7.036;2023-04-24T07:47:30;11.10;99.90
36752;DHT22;22718;49.494;7.036;2023-04-24T07:50:03;8.60;99.90
36752;DHT22;22718;49.494;7.036;2023-04-24T07:52:32;8.50;99.90
36752;DHT22;22718;49.494;7.036;2023-04-24T07:54:58;4.30;99.90
36752;DHT22;22718;49.494;7.036;2023-04-24T07:57:25;8.60;99.90
36752;DHT22;22718;49.494;7.036;2023-04-24T07:59:54;9.70;99.90
36752;DHT22;22718;49.494;7.036;2023-04-24T08:02:23;8.40;99.90
36752;DHT22;22718;49.494;7.036;2023-04-24T08:04:52;11.10;99.90
36752;DHT22;22718;49.494;7.036;2023-04-24T08:07:20;8.80;99.90
36752;DHT22;22718;49.494;7.036;2023-04-24T08:09:49;9.00;99.90
36752;DHT22;22718;49.494;7.036;2023-04-24T08:15:07;5.20;99.90
36752;DHT22;22718;49.494;7.036;2023-04-24T08:17:43;6.70;99.90
36752;DHT22;22718;49.494;7.036;2023-04-24T08:23:23;12.30;99.90
36752;DHT22;22718;49.494;7.036;2023-04-24T08:26:29;8.60;99.90
36752;DHT22;22718;49.494;7.036;2023-04-24T08:29:17;8.70;99.90
36752;DHT22;22718;49.494;7.036;2023-04-24T08:31:45;8.70;99.90
36752;DHT22;22718;49.494;7.036;2023-04-24T08:34:21;8.90;99.90
36752;DHT22;22718;49.494;7.036;2023-04-24T08:36:47;9.70;99.90
36752;DHT22;22718;49.494;7.036;2023-04-24T08:39:12;9.20;99.90
36752;DHT22;22718;49.494;7.036;2023-04-24T08:44:17;9.00;99.90
36752;DHT22;22718;49.494;7.036;2023-04-24T08:47:15;9.00;99.90
36752;DHT22;22718;49.494;7.036;2023-04-24T08:49:42;8.90;99.90
36752;DHT22;22718;49.494;7.036;2023-04-24T08:55:07;8.80;99.90
36752;DHT22;22718;49.494;7.036;2023-04-24T08:57:44;8.90;99.90
36752;DHT22;22718;49.494;7.036;2023-04-24T09:06:04;9.00;99.90
36752;DHT22;22718;49.494;7.036;2023-04-24T09:17:37;9.00;99.90
36752;DHT22;22718;49.494;7.036;2023-04-24T09:23:50;9.00;99.90
36752;DHT22;22718;49.494;7.036;2023-04-24T09:30:10;9.20;99.90
36752;DHT22;22718;49.494;7.036;2023-04-24T09:32:53;9.30;99.90
36752;DHT22;22718;49.494;7.036;2023-04-24T09:38:33;9.40;99.90
36752;DHT22;22718;49.494;7.036;2023-04-24T09:41:03;9.30;99.90
36752;DHT22;22718;49.494;7.036;2023-04-24T09:43:50;9.30;99.90
36752;DHT22;22718;49.494;7.036;2023-04-24T09:49:29;10.00;99.90
36752;DHT22;22718;49.494;7.036;2023-04-24T09:52:08;10.30;99.90
36752;DHT22;22718;49.494;7.036;2023-04-24T09:54:37;10.70;99.90
36752;DHT22;22718;49.494;7.036;2023-04-24T09:57:08;11.30;99.90
36752;DHT22;22718;49.494;7.036;2023-04-24T09:59:45;11.90;99.90
36752;DHT22;22718;49.494;7.036;2023-04-24T10:02:18;12.10;99.90
36752;DHT22;22718;49.494;7.036;2023-04-24T10:04:56;12.90;99.90
36752;DHT22;22718;49.494;7.036;2023-04-24T10:07:25;12.90;99.90
36752;DHT22;22718;49.494;7.036;2023-04-24T10:09:57;13.10;99.90
36752;DHT22;22718;49.494;7.036;2023-04-24T10:12:23;14.20;99.90
36752;DHT22;22718;49.494;7.036;2023-04-24T10:17:54;12.80;99.90
36752;DHT22;22718;49.494;7.036;2023-04-24T10:20:20;9.60;99.90
36752;DHT22;22718;49.494;7.036;2023-04-24T10:22:53;12.20;99.90
36752;DHT22;22718;49.494;7.036;2023-04-24T10:25:27;9.20;99.90
36752;DHT22;22718;49.494;7.036;2023-04-24T10:27:59;12.00;99.90
36752;DHT22;22718;49.494;7.036;2023-04-24T10:30:26;11.10;99.90
36752;DHT22;22718;49.494;7.036;2023-04-24T10:32:52;11.00;99.90
36752;DHT22;22718;49.494;7.036;2023-04-24T10:35:18;10.90;99.90
36752;DHT22;22718;49.494;7.036;2023-04-24T10:40:16;11.00;99.90
36752;DHT22;22718;49.494;7.036;2023-04-24T10:42:49;11.00;99.90
36752;DHT22;22718;49.494;7.036;2023-04-24T10:45:20;11.10;99.90
36752;DHT22;22718;49.494;7.036;2023-04-24T10:50:17;11.40;99.90
36752;DHT22;22718;49.494;7.036;2023-04-24T10:52:46;12.30;99.90
36752;DHT22;22718;49.494;7.036;2023-04-24T10:55:13;11.60;99.90
36752;DHT22;22718;49.494;7.036;2023-04-24T10:57:40;11.80;99.90
36752;DHT22;22718;49.494;7.036;2023-04-24T11:00:28;11.90;99.90
36752;DHT22;22718;49.494;7.036;2023-04-24T11:02:54;11.90;99.90
36752;DHT22;22718;49.494;7.036;2023-04-24T11:05:21;11.60;99.90
36752;DHT22;22718;49.494;7.036;2023-04-24T11:10:39;11.90;99.90
36752;DHT22;22718;49.494;7.036;2023-04-24T11:13:06;11.30;99.90
36752;DHT22;22718;49.494;7.036;2023-04-24T11:15:32;11.80;99.90
36752;DHT22;22718;49.494;7.036;2023-04-24T11:17:57;11.70;99.90
36752;DHT22;22718;49.494;7.036;2023-04-24T11:20:23;11.30;99.90
36752;DHT22;22718;49.494;7.036;2023-04-24T11:22:53;12.00;99.90
36752;DHT22;22718;49.494;7.036;2023-04-24T11:25:24;11.90;99.90
36752;DHT22;22718;49.494;7.036;2023-04-24T11:27:51;12.10;99.90
36752;DHT22;22718;49.494;7.036;2023-04-24T11:30:33;11.40;99.90
36752;DHT22;22718;49.494;7.036;2023-04-24T11:33:06;11.50;99.90
36752;DHT22;22718;49.494;7.036;2023-04-24T11:35:34;11.60;99.90
36752;DHT22;22718;49.494;7.036;2023-04-24T11:38:02;11.30;99.90
36752;DHT22;22718;49.494;7.036;2023-04-24T11:40:28;11.40;99.90
36752;DHT22;22718;49.494;7.036;2023-04-24T11:42:54;12.00;99.90
36752;DHT22;22718;49.494;7.036;2023-04-24T11:45:34;11.40;99.90
36752;DHT22;22718;49.494;7.036;2023-04-24T11:48:00;11.80;99.90
36752;DHT22;22718;49.494;7.036;2023-04-24T11:50:26;11.40;99.90
36752;DHT22;22718;49.494;7.036;2023-04-24T11:53:02;11.70;99.90
36752;DHT22;22718;49.494;7.036;2023-04-24T11:55:42;11.70;99.90
36752;DHT22;22718;49.494;7.036;2023-04-24T11:58:07;12.10;99.90
36752;DHT22;22718;49.494;7.036;2023-04-24T12:00:36;12.80;99.90
36752;DHT22;22718;49.494;7.036;2023-04-24T12:06:18;13.30;99.90
36752;DHT22;22718;49.494;7.036;2023-04-24T12:51:02;13.40;99.90
36752;DHT22;22718;49.494;7.036;2023-04-24T12:53:56;14.10;99.90
36752;DHT22;22718;49.494;7.036;2023-04-24T14:35:08;11.20;99.90
36752;DHT22;22718;49.494;7.036;2023-04-24T14:37:34;11.20;99.90
36752;DHT22;22718;49.494;7.036;2023-04-24T14:40:10;11.30;99.90
36752;DHT22;22718;49.494;7.036;2023-04-24T14:42:38;11.70;99.90
36752;DHT22;22718;49.494;7.036;2023-04-24T14:45:04;11.90;99.90
36752;DHT22;22718;49.494;7.036;2023-04-24T14:47:49;12.10;99.90
36752;DHT22;22718;49.494;7.036;2023-04-24T14:53:39;12.30;99.90
36752;DHT22;22718;49.494;7.036;2023-04-24T14:56:12;14.30;99.90
36752;DHT22;22718;49.494;7.036;2023-04-24T15:01:47;14.00;99.90
36752;DHT22;22718;49.494;7.036;2023-04-24T15:04:13;13.00;99.90
36752;DHT22;22718;49.494;7.036;2023-04-24T15:06:38;12.50;99.90
36752;DHT22;22718;49.494;7.036;2023-04-24T15:09:07;12.20;99.90
36752;DHT22;22718;49.494;7.036;2023-04-24T15:13:59;12.10;99.90
36752;DHT22;22718;49.494;7.036;2023-04-24T15:16:35;12.30;99.90
36752;DHT22;22718;49.494;7.036;2023-04-24T15:19:04;12.30;99.90
36752;DHT22;22718;49.494;7.036;2023-04-24T15:34:27;12.30;99.90
36752;DHT22;22718;49.494;7.036;2023-04-24T15:36:53;12.70;99.90
36752;DHT22;22718;49.494;7.036;2023-04-24T15:39:37;11.30;99.90
36752;DHT22;22718;49.494;7.036;2023-04-24T15:44:35;12.70;99.90
36752;DHT22;22718;49.494;7.036;2023-04-24T15:47:04;12.10;99.90
36752;DHT22;22718;49.494;7.036;2023-04-24T15:49:32;12.80;99.90
36752;DHT22;22718;49.494;7.036;2023-04-24T15:51:58;12.30;99.90
36752;DHT22;22718;49.494;7.036;2023-04-24T15:54:24;12.30;99.90
36752;DHT22;22718;49.494;7.036;2023-04-24T15:56:49;12.20;99.90
36752;DHT22;22718;49.494;7.036;2023-04-24T15:59:16;12.10;99.90
36752;DHT22;22718;49.494;7.036;2023-04-24T16:01:42;11.90;99.90
36752;DHT22;22718;49.494;7.036;2023-04-24T16:04:10;11.90;99.90
36752;DHT22;22718;49.494;7.036;2023-04-24T16:06:48;11.80;99.90
36752;DHT22;22718;49.494;7.036;2023-04-24T16:09:13;11.60;99.90
36752;DHT22;22718;49.494;7.036;2023-04-24T16:11:48;9.80;99.90
36752;DHT22;22718;49.494;7.036;2023-04-24T16:14:19;11.60;99.90
36752;DHT22;22718;49.494;7.036;2023-04-24T16:16:49;11.50;99.90
36752;DHT22;22718;49.494;7.036;2023-04-24T16:19:15;12.50;99.90
36752;DHT22;22718;49.494;7.036;2023-04-24T16:21:43;11.30;99.90
36752;DHT22;22718;49.494;7.036;2023-04-24T16:24:14;11.20;99.90
36752;DHT22;22718;49.494;7.036;2023-04-24T16:26:46;11.00;99.90
36752;DHT22;22718;49.494;7.036;2023-04-24T16:29:11;11.00;99.90
36752;DHT22;22718;49.494;7.036;2023-04-24T16:31:40;11.00;99.90
36752;DHT22;22718;49.494;7.036;2023-04-24T16:34:05;11.00;99.90
36752;DHT22;22718;49.494;7.036;2023-04-24T16:36:31;11.00;99.90
36752;DHT22;22718;49.494;7.036;2023-04-24T16:39:02;11.00;99.90
36752;DHT22;22718;49.494;7.036;2023-04-24T16:41:32;10.90;99.90
36752;DHT22;22718;49.494;7.036;2023-04-24T16:44:04;10.80;99.90
36752;DHT22;22718;49.494;7.036;2023-04-24T16:46:33;10.70;99.90
36752;DHT22;22718;49.494;7.036;2023-04-24T16:48:59;10.50;99.90
36752;DHT22;22718;49.494;7.036;2023-04-24T16:51:33;10.50;99.90
36752;DHT22;22718;49.494;7.036;2023-04-24T16:53:59;11.20;99.90
36752;DHT22;22718;49.494;7.036;2023-04-24T16:56:27;9.20;99.90
36752;DHT22;22718;49.494;7.036;2023-04-24T16:58:58;10.30;99.90
36752;DHT22;22718;49.494;7.036;2023-04-24T17:01:24;10.90;99.90
36752;DHT22;22718;49.494;7.036;2023-04-24T17:03:50;10.20;99.90
36752;DHT22;22718;49.494;7.036;2023-04-24T17:06:21;10.30;99.90
36752;DHT22;22718;49.494;7.036;2023-04-24T17:09:09;10.20;99.90
36752;DHT22;22718;49.494;7.036;2023-04-24T17:11:42;10.20;99.90
36752;DHT22;22718;49.494;7.036;2023-04-24T17:14:10;10.20;99.90
36752;DHT22;22718;49.494;7.036;2023-04-24T17:16:48;10.20;99.90
36752;DHT22;22718;49.494;7.036;2023-04-24T17:19:22;10.50;99.90
36752;DHT22;22718;49.494;7.036;2023-04-24T17:21:50;10.00;99.90
36752;DHT22;22718;49.494;7.036;2023-04-24T17:27:06;10.20;99.90
36752;DHT22;22718;49.494;7.036;2023-04-24T17:29:34;10.60;99.90
36752;DHT22;22718;49.494;7.036;2023-04-24T17:32:00;10.40;99.90
36752;DHT22;22718;49.494;7.036;2023-04-24T17:34:26;8.90;99.90
36752;DHT22;22718;49.494;7.036;2023-04-24T17:36:51;9.90;99.90
36752;DHT22;22718;49.494;7.036;2023-04-24T17:39:25;9.90;99.90
36752;DHT22;22718;49.494;7.036;2023-04-24T17:41:51;9.90;99.90
36752;DHT22;22718;49.494;7.036;2023-04-24T17:44:32;9.90;99.90
36752;DHT22;22718;49.494;7.036;2023-04-24T17:46:58;10.50;99.90
36752;DHT22;22718;49.494;7.036;2023-04-24T17:49:26;9.80;99.90
36752;DHT22;22718;49.494;7.036;2023-04-24T17:52:06;9.80;99.90
36752;DHT22;22718;49.494;7.036;2023-04-24T17:54:56;10.00;99.90
36752;DHT22;22718;49.494;7.036;2023-04-24T17:57:21;9.70;99.90
36752;DHT22;22718;49.494;7.036;2023-04-24T17:59:47;9.60;99.90
36752;DHT22;22718;49.494;7.036;2023-04-24T18:07:17;9.50;99.90
36752;DHT22;22718;49.494;7.036;2023-04-24T18:09:43;9.50;99.90
36752;DHT22;22718;49.494;7.036;2023-04-24T18:12:08;9.40;99.90
36752;DHT22;22718;49.494;7.036;2023-04-24T18:14:34;10.80;99.90
36752;DHT22;22718;49.494;7.036;2023-04-24T18:17:05;9.90;99.90
36752;DHT22;22718;49.494;7.036;2023-04-24T18:19:33;9.40;99.90
36752;DHT22;22718;49.494;7.036;2023-04-24T18:22:01;7.50;99.90
36752;DHT22;22718;49.494;7.036;2023-04-24T18:24:38;9.40;99.90
36752;DHT22;22718;49.494;7.036;2023-04-24T18:27:07;9.30;99.90
36752;DHT22;22718;49.494;7.036;2023-04-24T18:29:34;9.50;99.90
36752;DHT22;22718;49.494;7.036;2023-04-24T18:32:00;9.50;99.90
36752;DHT22;22718;49.494;7.036;2023-04-24T18:34:25;7.60;99.90
36752;DHT22;22718;49.494;7.036;2023-04-24T18:36:59;9.90;99.90
36752;DHT22;22718;49.494;7.036;2023-04-24T18:39:29;9.50;99.90
36752;DHT22;22718;49.494;7.036;2023-04-24T18:41:58;9.10;99.90
36752;DHT22;22718;49.494;7.036;2023-04-24T18:44:27;9.10;99.90
36752;DHT22;22718;49.494;7.036;2023-04-24T18:46:56;9.10;99.90
36752;DHT22;22718;49.494;7.036;2023-04-24T18:49:24;9.30;99.90
36752;DHT22;22718;49.494;7.036;2023-04-24T18:52:01;9.00;99.90
36752;DHT22;22718;49.494;7.036;2023-04-24T18:54:29;9.00;99.90
36752;DHT22;22718;49.494;7.036;2023-04-24T18:56:58;8.90;99.90
36752;DHT22;22718;49.494;7.036;2023-04-24T18:59:24;8.70;99.90
36752;DHT22;22718;49.494;7.036;2023-04-24T19:01:55;8.90;99.90
36752;DHT22;22718;49.494;7.036;2023-04-24T19:04:21;10.00;99.90
36752;DHT22;22718;49.494;7.036;2023-04-24T19:06:47;9.10;99.90
36752;DHT22;22718;49.494;7.036;2023-04-24T19:09:13;7.00;99.90
36752;DHT22;22718;49.494;7.036;2023-04-24T19:11:39;9.80;99.90
36752;DHT22;22718;49.494;7.036;2023-04-24T19:14:18;8.80;99.90
36752;DHT22;22718;49.494;7.036;2023-04-24T19:16:44;8.80;99.90
36752;DHT22;22718;49.494;7.036;2023-04-24T19:19:20;8.70;99.90
36752;DHT22;22718;49.494;7.036;2023-04-24T19:21:48;8.70;99.90
36752;DHT22;22718;49.494;7.036;2023-04-24T19:24:14;8.30;99.90
36752;DHT22;22718;49.494;7.036;2023-04-24T19:26:47;9.10;99.90
36752;DHT22;22718;49.494;7.036;2023-04-24T19:29:14;8.50;99.90
36752;DHT22;22718;49.494;7.036;2023-04-24T19:31:42;8.70;99.90
36752;DHT22;22718;49.494;7.036;2023-04-24T19:40:08;8.70;99.90
36752;DHT22;22718;49.494;7.036;2023-04-24T19:42:46;8.70;99.90
36752;DHT22;22718;49.494;7.036;2023-04-24T19:48:15;7.80;99.90
36752;DHT22;22718;49.494;7.036;2023-04-24T19:50:44;9.00;99.90
36752;DHT22;22718;49.494;7.036;2023-04-24T19:53:11;8.70;99.90
36752;DHT22;22718;49.494;7.036;2023-04-24T19:55:36;9.40;99.90
36752;DHT22;22718;49.494;7.036;2023-04-24T19:58:23;8.60;99.90
36752;DHT22;22718;49.494;7.036;2023-04-24T20:01:04;8.60;99.90
36752;DHT22;22718;49.494;7.036;2023-04-24T20:03:30;8.60;99.90
36752;DHT22;22718;49.494;7.036;2023-04-24T20:05:58;7.20;99.90
36752;DHT22;22718;49.494;7.036;2023-04-24T20:08:28;8.70;99.90
36752;DHT22;22718;49.494;7.036;2023-04-24T20:10:58;8.50;99.90
36752;DHT22;22718;49.494;7.036;2023-04-24T20:14:09;8.60;99.90
